createdAt,value
2018-12-27T00:01:44.641Z,96.40
2018-12-27T00:04:16.308Z,96.50
2018-12-27T00:06:48.004Z,96.50
2018-12-27T00:09:20.834Z,96.50
2018-12-27T00:11:52.624Z,96.60
2018-12-27T00:14:26.938Z,96.60
2018-12-27T00:16:57.615Z,96.50
2018-12-27T00:19:29.377Z,96.60
2018-12-27T00:22:02.866Z,96.60
2018-12-27T00:24:37.817Z,96.70
2018-12-27T00:27:11.956Z,96.70
2018-12-27T00:29:46.135Z,96.70
2018-12-27T00:32:22.498Z,96.70
2018-12-27T00:34:54.096Z,96.70
2018-12-27T00:37:27.278Z,96.70
2018-12-27T00:39:59.259Z,96.80
2018-12-27T00:42:32.536Z,96.70
2018-12-27T00:45:04.503Z,96.70
2018-12-27T00:47:37.263Z,96.60
2018-12-27T00:50:09.107Z,96.60
2018-12-27T00:53:26.013Z,96.60
2018-12-27T00:55:53.237Z,96.60
2018-12-27T00:58:25.221Z,96.60
2018-12-27T01:00:59.973Z,96.60
2018-12-27T01:03:33.197Z,96.60
2018-12-27T01:06:08.886Z,96.50
2018-12-27T01:08:40.621Z,96.50
2018-12-27T01:11:12.538Z,96.50
2018-12-27T01:13:44.234Z,96.40
2018-12-27T01:16:18.151Z,96.40
2018-12-27T01:18:50.892Z,96.40
2018-12-27T01:21:22.768Z,96.30
2018-12-27T01:23:54.565Z,96.20
2018-12-27T01:26:26.895Z,96.20
2018-12-27T01:28:58.575Z,96.30
2018-12-27T01:31:30.311Z,96.30
2018-12-27T01:34:02.043Z,96.30
2018-12-27T01:36:33.755Z,96.30
2018-12-27T01:39:07.153Z,96.40
2018-12-27T01:41:38.786Z,96.30
2018-12-27T01:44:10.520Z,96.20
2018-12-27T01:46:44.264Z,96.20
2018-12-27T01:49:15.650Z,96.20
2018-12-27T01:51:47.390Z,96.20
2018-12-27T01:54:18.983Z,96.20
2018-12-27T01:56:50.856Z,96.20
2018-12-27T01:59:22.811Z,96.30
2018-12-27T02:01:56.900Z,96.30
2018-12-27T02:04:28.000Z,96.40
2018-12-27T02:06:59.718Z,96.40
2018-12-27T02:09:32.173Z,96.40
2018-12-27T02:12:03.995Z,96.40
2018-12-27T02:14:35.802Z,96.30
2018-12-27T02:17:07.571Z,96.20
2018-12-27T02:19:39.365Z,96.20
2018-12-27T02:22:11.080Z,96.20
2018-12-27T02:24:42.702Z,96.20
2018-12-27T02:27:15.106Z,96.20
2018-12-27T02:29:49.461Z,96.20
2018-12-27T02:32:21.185Z,96.10
2018-12-27T02:34:53.476Z,96.00
2018-12-27T02:37:25.151Z,96.30
2018-12-27T02:40:11.055Z,96.00
2018-12-27T02:42:30.405Z,96.10
2018-12-27T02:45:04.064Z,96.00
2018-12-27T02:47:40.739Z,96.00
2018-12-27T02:50:09.402Z,95.90
2018-12-27T02:52:42.332Z,96.00
2018-12-27T02:55:15.288Z,96.00
2018-12-27T02:57:46.915Z,96.00
2018-12-27T03:00:18.546Z,96.00
2018-12-27T03:02:50.186Z,96.00
2018-12-27T03:05:21.880Z,96.00
2018-12-27T03:07:53.537Z,96.00
2018-12-27T03:10:25.183Z,96.00
2018-12-27T03:12:56.851Z,96.00
2018-12-27T03:15:28.463Z,96.00
2018-12-27T03:18:00.229Z,96.00
2018-12-27T03:20:31.956Z,96.00
2018-12-27T03:23:04.084Z,96.00
2018-12-27T03:25:36.007Z,96.00
2018-12-27T03:28:07.744Z,96.00
2018-12-27T03:30:39.455Z,95.90
2018-12-27T03:33:11.377Z,95.90
2018-12-27T03:35:43.329Z,95.90
2018-12-27T03:38:15.146Z,95.90
2018-12-27T03:40:46.925Z,95.90
2018-12-27T03:43:18.573Z,95.90
2018-12-27T03:45:50.868Z,95.90
2018-12-27T03:48:22.496Z,95.90
2018-12-27T03:50:54.144Z,95.90
2018-12-27T03:53:25.932Z,95.90
2018-12-27T03:55:59.288Z,95.80
2018-12-27T03:58:31.293Z,95.80
2018-12-27T04:01:04.445Z,95.80
2018-12-27T04:03:36.127Z,95.80
2018-12-27T04:06:07.668Z,95.80
2018-12-27T04:08:40.436Z,95.80
2018-12-27T04:11:12.261Z,95.80
2018-12-27T04:13:44.084Z,95.80
2018-12-27T04:16:15.769Z,96.00
2018-12-27T04:18:47.509Z,95.80
2018-12-27T04:21:22.207Z,95.90
2018-12-27T04:23:55.130Z,95.80
2018-12-27T04:26:33.427Z,95.80
2018-12-27T04:29:05.066Z,95.90
2018-12-27T04:31:37.129Z,95.80
2018-12-27T04:34:14.726Z,95.80
2018-12-27T04:36:47.568Z,95.80
2018-12-27T04:39:22.204Z,95.80
2018-12-27T04:42:17.571Z,95.80
2018-12-27T04:45:28.931Z,95.80
2018-12-27T04:49:37.967Z,95.70
2018-12-27T04:50:47.766Z,95.60
2018-12-27T04:53:24.226Z,95.70
2018-12-27T04:55:53.276Z,95.70
2018-12-27T04:58:25.140Z,95.70
2018-12-27T05:00:58.606Z,95.70
2018-12-27T05:03:30.670Z,95.70
2018-12-27T05:06:09.478Z,95.70
2018-12-27T05:08:35.949Z,95.80
2018-12-27T05:11:46.023Z,95.80
2018-12-27T05:33:23.031Z,95.80
2018-12-27T05:52:37.485Z,95.70
2018-12-27T05:55:15.560Z,95.70
2018-12-27T05:57:48.059Z,95.70
2018-12-27T06:00:20.019Z,95.70
2018-12-27T06:02:51.886Z,95.70
2018-12-27T06:05:23.863Z,95.60
2018-12-27T06:07:56.035Z,95.60
2018-12-27T06:10:31.141Z,95.60
2018-12-27T06:13:05.987Z,95.70
2018-12-27T06:15:38.075Z,95.70
2018-12-27T06:18:14.602Z,95.80
2018-12-27T06:20:49.486Z,95.70
2018-12-27T06:23:23.457Z,95.70
2018-12-27T06:25:57.013Z,95.70
2018-12-27T06:28:29.153Z,96.10
2018-12-27T06:31:01.648Z,95.70
2018-12-27T06:33:41.765Z,95.70
2018-12-27T06:36:14.434Z,95.70
2018-12-27T06:38:46.849Z,95.60
2018-12-27T06:41:20.741Z,95.60
2018-12-27T06:43:52.595Z,95.70
2018-12-27T06:46:27.260Z,95.70
2018-12-27T06:49:00.176Z,95.70
2018-12-27T06:51:33.430Z,95.70
2018-12-27T06:54:05.748Z,95.80
2018-12-27T06:56:38.231Z,95.80
2018-12-27T06:59:11.924Z,95.90
2018-12-27T07:01:45.545Z,95.90
2018-12-27T07:04:17.702Z,95.90
2018-12-27T07:06:51.149Z,95.90
2018-12-27T07:09:23.607Z,95.80
2018-12-27T07:11:56.459Z,95.80
2018-12-27T07:14:30.213Z,95.80
2018-12-27T07:17:02.630Z,95.90
2018-12-27T07:19:34.686Z,95.90
2018-12-27T07:22:07.017Z,95.90
2018-12-27T07:24:41.486Z,95.90
2018-12-27T07:27:14.768Z,95.90
2018-12-27T07:29:46.366Z,95.90
2018-12-27T07:32:17.628Z,95.90
2018-12-27T11:42:21.328Z,94.60
2018-12-27T11:44:57.088Z,94.60
2018-12-27T11:47:28.207Z,94.80
2018-12-27T11:50:00.286Z,94.30
2018-12-27T11:56:43.388Z,94.40
2018-12-27T11:59:14.628Z,94.30
2018-12-27T12:01:45.837Z,94.40
2018-12-27T12:05:00.566Z,94.50
2018-12-27T12:07:33.787Z,94.40
2018-12-27T12:10:38.040Z,94.60
2018-12-27T12:13:10.128Z,94.80
2018-12-27T12:15:42.016Z,94.80
2018-12-27T12:18:13.819Z,94.80
2018-12-27T12:20:45.601Z,94.80
2018-12-27T12:23:17.386Z,94.80
2018-12-27T12:25:49.175Z,94.80
2018-12-27T12:28:20.828Z,94.80
2018-12-27T12:30:52.586Z,94.70
2018-12-27T12:33:24.238Z,94.80
2018-12-27T12:35:56.208Z,94.90
2018-12-27T12:38:28.127Z,94.90
2018-12-27T12:41:00.007Z,94.90
2018-12-27T12:43:38.167Z,95.00
2018-12-27T12:46:12.670Z,94.90
2018-12-27T12:48:44.009Z,94.80
2018-12-27T12:51:17.869Z,94.80
2018-12-27T12:53:49.105Z,94.90
2018-12-27T12:56:23.027Z,94.90
2018-12-27T12:58:55.087Z,94.90
2018-12-27T13:01:26.334Z,94.90
2018-12-27T13:03:57.608Z,94.90
2018-12-27T13:06:29.093Z,94.90
2018-12-27T13:09:00.377Z,94.90
2018-12-27T13:11:31.673Z,94.90
2018-12-27T13:14:02.903Z,94.90
2018-12-27T13:16:34.236Z,94.90
2018-12-27T13:19:05.452Z,94.90
2018-12-27T13:21:36.719Z,94.80
2018-12-27T13:24:07.926Z,94.80
2018-12-27T13:26:39.281Z,94.80
2018-12-27T13:29:10.568Z,94.90
2018-12-27T13:31:41.918Z,95.00
2018-12-27T13:34:13.204Z,94.90
2018-12-27T13:36:44.636Z,95.00
2018-12-27T13:39:15.928Z,95.00
2018-12-27T13:41:47.248Z,95.00
2018-12-27T13:44:18.456Z,95.10
2018-12-27T13:46:49.840Z,94.90
2018-12-27T13:49:21.183Z,94.90
2018-12-27T13:51:52.492Z,94.90
2018-12-27T13:54:23.769Z,94.90
2018-12-27T13:56:55.058Z,94.90
2018-12-27T13:59:26.323Z,94.80
2018-12-27T14:01:57.648Z,94.90
2018-12-27T14:04:29.189Z,95.00
2018-12-27T14:07:00.543Z,95.00
2018-12-27T14:09:32.010Z,95.00
2018-12-27T14:12:03.371Z,95.00
2018-12-27T14:14:34.766Z,95.00
2018-12-27T14:17:06.068Z,95.00
2018-12-27T14:19:37.328Z,95.10
2018-12-27T14:22:08.707Z,95.30
2018-12-27T14:24:40.027Z,95.30
2018-12-27T14:27:11.405Z,95.40
2018-12-27T14:29:42.654Z,95.50
2018-12-27T14:32:14.446Z,95.50
2018-12-27T14:34:45.767Z,95.50
2018-12-27T14:37:17.072Z,95.50
2018-12-27T14:39:48.467Z,95.50
2018-12-27T14:42:19.807Z,95.60
2018-12-27T14:44:52.260Z,95.50
2018-12-27T14:47:23.577Z,95.40
2018-12-27T14:49:56.356Z,95.40
2018-12-27T14:52:28.655Z,95.40
2018-12-27T14:54:59.966Z,95.40
2018-12-27T14:57:31.299Z,95.40
2018-12-27T15:00:02.608Z,95.30
2018-12-27T15:02:34.169Z,95.40
2018-12-27T15:05:05.768Z,95.30
2018-12-27T15:07:37.361Z,95.30
2018-12-27T15:10:10.868Z,95.30
2018-12-27T15:12:42.168Z,95.30
2018-12-27T15:15:13.875Z,95.30
2018-12-27T15:17:45.289Z,95.40
2018-12-27T15:20:16.626Z,95.30
2018-12-27T15:22:48.059Z,95.30
2018-12-27T15:25:19.301Z,95.30
2018-12-27T15:27:50.927Z,95.30
2018-12-27T15:30:22.739Z,95.30
2018-12-27T15:32:54.079Z,95.30
2018-12-27T15:35:25.666Z,95.30
2018-12-27T15:37:57.061Z,95.30
2018-12-27T15:40:28.338Z,95.40
2018-12-27T15:42:59.666Z,95.50
2018-12-27T15:45:31.017Z,95.40
2018-12-27T15:48:02.455Z,95.50
2018-12-27T15:50:33.966Z,95.50
2018-12-27T15:53:05.388Z,95.40
2018-12-27T15:55:36.600Z,95.50
2018-12-27T15:58:08.008Z,95.50
2018-12-27T16:00:39.483Z,95.50
2018-12-27T16:03:10.960Z,95.60
2018-12-27T16:05:42.591Z,95.60
2018-12-27T16:08:14.016Z,95.60
2018-12-27T16:10:45.569Z,95.60
2018-12-27T16:13:16.919Z,95.90
2018-12-27T16:15:48.615Z,95.60
2018-12-27T16:18:19.985Z,95.60
2018-12-27T16:20:51.267Z,95.60
2018-12-27T16:23:22.649Z,95.60
2018-12-27T16:25:54.307Z,95.50
2018-12-27T16:28:25.583Z,95.50
2018-12-27T16:30:57.115Z,95.50
2018-12-27T16:33:28.892Z,95.50
2018-12-27T16:36:01.722Z,95.40
2018-12-27T16:38:33.549Z,95.40
2018-12-27T16:41:05.509Z,95.40
2018-12-27T16:43:37.281Z,95.50
2018-12-27T16:46:08.909Z,95.60
2018-12-27T16:48:40.834Z,95.60
2018-12-27T16:51:12.703Z,95.50
2018-12-27T16:53:43.954Z,95.60
2018-12-27T16:56:15.536Z,95.60
2018-12-27T16:58:47.189Z,95.70
2018-12-27T17:01:19.187Z,95.80
2018-12-27T17:03:50.769Z,95.80
2018-12-27T17:06:22.370Z,95.80
2018-12-27T17:08:53.801Z,95.80
2018-12-27T17:11:25.527Z,95.70
2018-12-27T17:13:57.370Z,95.80
2018-12-27T17:16:28.813Z,95.80
2018-12-27T17:19:00.448Z,95.70
2018-12-27T17:21:31.908Z,95.70
2018-12-27T17:24:03.321Z,95.60
2018-12-27T17:26:35.007Z,95.60
2018-12-27T17:29:06.367Z,95.70
2018-12-27T17:31:37.946Z,95.70
2018-12-27T17:34:09.831Z,95.70
2018-12-27T17:36:41.416Z,95.80
2018-12-27T17:39:13.248Z,95.80
2018-12-27T17:41:45.257Z,95.80
2018-12-27T17:44:17.199Z,95.80
2018-12-27T17:46:48.969Z,95.80
2018-12-27T17:49:20.876Z,95.70
2018-12-27T17:51:52.961Z,95.70
2018-12-27T17:54:25.929Z,95.70
2018-12-27T17:56:57.747Z,95.70
2018-12-27T17:59:29.289Z,95.60
2018-12-27T18:02:01.628Z,95.60
2018-12-27T18:04:33.689Z,95.50
2018-12-27T18:07:05.631Z,95.30
2018-12-27T18:09:40.767Z,95.30
2018-12-27T18:12:12.848Z,95.20
2018-12-27T18:14:47.428Z,95.30
2018-12-27T18:17:19.309Z,95.30
2018-12-27T18:19:51.208Z,95.30
2018-12-27T18:22:22.941Z,95.20
2018-12-27T18:24:54.869Z,95.20
2018-12-27T18:27:26.841Z,95.20
2018-12-27T18:29:58.995Z,95.20
2018-12-27T18:32:31.647Z,95.20
2018-12-27T18:35:03.841Z,95.10
2018-12-27T18:37:37.914Z,95.00
2018-12-27T18:40:09.769Z,95.00
2018-12-27T18:42:41.892Z,95.00
2018-12-27T18:45:13.959Z,95.10
2018-12-27T18:47:45.988Z,95.10
2018-12-27T18:50:18.037Z,95.20
2018-12-27T18:52:50.056Z,95.10
2018-12-27T18:55:22.084Z,95.10
2018-12-27T18:57:54.281Z,95.10
2018-12-27T19:00:26.458Z,95.20
2018-12-27T19:02:58.487Z,95.20
2018-12-27T19:05:30.705Z,95.20
2018-12-27T19:08:02.760Z,95.10
2018-12-27T19:10:34.898Z,95.10
2018-12-27T19:13:16.945Z,95.20
2018-12-27T19:15:54.328Z,95.20
2018-12-27T19:18:48.449Z,95.30
2018-12-27T19:21:56.089Z,95.30
2018-12-27T19:24:28.309Z,95.40
2018-12-27T19:27:00.429Z,95.30
2018-12-27T19:29:32.483Z,95.40
2018-12-27T19:32:05.023Z,95.30
2018-12-27T19:34:37.237Z,95.30
2018-12-27T19:37:09.449Z,95.30
2018-12-27T19:39:41.481Z,95.30
2018-12-27T19:42:13.584Z,95.30
2018-12-27T19:44:45.737Z,95.30
2018-12-27T19:47:17.851Z,95.30
2018-12-27T19:49:50.049Z,95.30
2018-12-27T19:52:22.361Z,95.40
2018-12-27T19:54:54.495Z,95.40
2018-12-27T19:57:27.191Z,95.40
2018-12-27T19:59:59.454Z,95.30
2018-12-27T20:02:31.718Z,95.30
2018-12-27T20:05:03.748Z,95.40
2018-12-27T20:07:35.978Z,95.40
2018-12-27T20:10:08.309Z,95.40
2018-12-27T20:12:40.561Z,95.40
2018-12-27T20:15:12.673Z,95.40
2018-12-27T20:17:46.408Z,95.40
2018-12-27T20:20:22.263Z,95.40
2018-12-27T20:22:57.487Z,95.40
2018-12-27T20:25:29.812Z,95.40
2018-12-27T20:28:32.705Z,95.40
2018-12-27T20:31:05.120Z,95.40
2018-12-27T20:33:37.332Z,95.30
2018-12-27T20:36:09.447Z,95.30
2018-12-27T20:38:42.484Z,95.30
2018-12-27T20:41:14.448Z,95.40
2018-12-27T20:43:51.214Z,95.40
2018-12-27T20:46:23.413Z,95.40
2018-12-27T20:48:55.411Z,95.40
2018-12-27T20:51:27.488Z,95.70
2018-12-27T20:53:59.557Z,95.40
2018-12-27T20:56:34.221Z,95.30
2018-12-27T20:59:06.360Z,95.30
2018-12-27T21:01:38.512Z,95.30
2018-12-27T21:04:10.649Z,95.40
2018-12-27T21:06:42.598Z,95.40
2018-12-27T21:09:15.266Z,95.50
2018-12-27T21:11:47.387Z,95.40
2018-12-27T21:14:19.603Z,95.40
2018-12-27T21:16:51.829Z,95.40
2018-12-27T21:19:24.037Z,95.40
2018-12-27T21:21:56.128Z,95.40
2018-12-27T21:24:28.364Z,95.40
2018-12-27T21:27:00.341Z,95.50
2018-12-27T21:29:32.297Z,95.50
2018-12-27T21:32:04.435Z,95.40
2018-12-27T21:34:36.551Z,95.40
2018-12-27T21:37:08.623Z,95.50
2018-12-27T21:39:40.784Z,95.50
2018-12-27T21:42:12.904Z,95.50
2018-12-27T21:44:45.067Z,95.50
2018-12-27T21:47:17.094Z,95.60
2018-12-27T21:49:49.209Z,95.70
2018-12-27T21:52:21.289Z,95.70
2018-12-27T21:54:53.470Z,95.70
2018-12-27T21:57:25.511Z,95.70
2018-12-27T21:59:57.630Z,95.80
2018-12-27T22:02:29.650Z,95.80
2018-12-27T22:05:01.817Z,95.80
2018-12-27T22:07:34.407Z,95.80
2018-12-27T22:10:07.410Z,95.80
2018-12-27T22:12:39.481Z,95.80
2018-12-27T22:15:11.647Z,95.80
2018-12-27T22:17:45.128Z,95.80
2018-12-27T22:20:17.235Z,95.80
2018-12-27T22:22:49.268Z,95.70
2018-12-27T22:25:21.399Z,95.70
2018-12-27T22:27:53.650Z,95.70
2018-12-27T22:30:25.765Z,95.80
2018-12-27T22:32:57.947Z,95.80
2018-12-27T22:35:30.070Z,95.80
2018-12-27T22:38:02.127Z,95.80
2018-12-27T22:40:36.505Z,95.80
2018-12-27T22:46:32.488Z,95.90
2018-12-27T22:49:04.547Z,95.90
2018-12-27T22:51:39.297Z,95.80
2018-12-27T22:54:11.443Z,95.80
2018-12-27T22:56:43.524Z,95.70
2018-12-27T22:59:15.629Z,95.70
2018-12-27T23:01:47.567Z,95.80
2018-12-27T23:04:19.404Z,95.80
2018-12-27T23:06:51.348Z,95.80
2018-12-27T23:09:22.891Z,95.80
2018-12-27T23:11:54.348Z,95.80
2018-12-27T23:14:25.736Z,95.80
2018-12-27T23:16:57.167Z,95.80
2018-12-27T23:19:28.590Z,95.80
2018-12-27T23:21:59.872Z,95.80
2018-12-27T23:24:31.428Z,95.80
2018-12-27T23:27:02.983Z,95.80
2018-12-27T23:29:34.220Z,95.80
2018-12-27T23:32:05.547Z,95.70
2018-12-27T23:34:36.921Z,95.90
2018-12-27T23:37:08.338Z,95.80
2018-12-27T23:39:39.697Z,95.80
2018-12-27T23:42:10.907Z,95.80
2018-12-27T23:44:42.169Z,96.20
2018-12-27T23:47:13.742Z,95.80
2018-12-27T23:49:45.110Z,95.80
2018-12-27T23:52:16.267Z,95.70
2018-12-27T23:54:47.554Z,95.70
2018-12-27T23:57:18.890Z,95.70
2018-12-27T23:59:50.160Z,95.70
